Aviation Digital Data Service (ADDS)

Output produced by METARs form (0349 UTC 26 June 2019)
found at http://www.aviationweather.gov/metar/data/
 
METAR text: KMCI 260253Z 19006KT 10SM FEW130 BKN250 22/19 A2996 RMK AO2 SLP134 FRQ LTGCGIC DSNT N CB DSNT N T02220189 53017
Conditions at: KMCI (KANSAS CITY/INTL, MO, US) observed 0253 UTC 26 June 2019
Temperature: 22.2°C (72°F)
Dewpoint: 18.9°C (66°F) [RH = 82%]
Pressure (altimeter): 29.96 inches Hg (1014.6 mb)
[Sea-level pressure: 1013.4 mb]
Winds: from the S (190 degrees) at 7 MPH (6 knots; 3.1 m/s)
Visibility: 10 or more miles (16+ km)
Ceiling: 25000 feet AGL
Clouds: few clouds at 13000 feet AGL
broken clouds at 25000 feet AGL
Weather: no significant weather observed at this time

METAR text: KMCI 260153Z 17007KT 10SM FEW150 BKN250 23/19 A2993 RMK AO2 SLP124 CB DSNT N T02330194
Conditions at: KMCI (KANSAS CITY/INTL, MO, US) observed 0153 UTC 26 June 2019
Temperature: 23.3°C (74°F)
Dewpoint: 19.4°C (67°F) [RH = 79%]
Pressure (altimeter): 29.93 inches Hg (1013.6 mb)
[Sea-level pressure: 1012.4 mb]
Winds: from the S (170 degrees) at 8 MPH (7 knots; 3.6 m/s)
Visibility: 10 or more miles (16+ km)
Ceiling: 25000 feet AGL
Clouds: few clouds at 15000 feet AGL
broken clouds at 25000 feet AGL
Weather: no significant weather observed at this time

METAR text: KMCI 260053Z 20007KT 10SM FEW150 SCT250 27/20 A2991 RMK AO2 SLP119 CB DSNT NW-NE T02720200
Conditions at: KMCI (KANSAS CITY/INTL, MO, US) observed 0053 UTC 26 June 2019
Temperature: 27.2°C (81°F)
Dewpoint: 20.0°C (68°F) [RH = 65%]
Pressure (altimeter): 29.91 inches Hg (1013.0 mb)
[Sea-level pressure: 1011.9 mb]
Winds: from the SSW (200 degrees) at 8 MPH (7 knots; 3.6 m/s)
Visibility: 10 or more miles (16+ km)
Ceiling: at least 12,000 feet AGL
Clouds: few clouds at 15000 feet AGL
scattered clouds at 25000 feet AGL
Weather: no significant weather observed at this time

METAR text: KMCI 252353Z 19010KT 10SM FEW150 FEW250 29/19 A2991 RMK AO2 SLP117 CB DSNT NW-NE T02890194 10306 20283 56010
Conditions at: KMCI (KANSAS CITY/INTL, MO, US) observed 2353 UTC 25 June 2019
Temperature: 28.9°C (84°F)
Dewpoint: 19.4°C (67°F) [RH = 57%]
Pressure (altimeter): 29.91 inches Hg (1013.0 mb)
[Sea-level pressure: 1011.7 mb]
Winds: from the S (190 degrees) at 12 MPH (10 knots; 5.1 m/s)
Visibility: 10 or more miles (16+ km)
Ceiling: at least 12,000 feet AGL
Clouds: few clouds at 15000 feet AGL
few clouds at 25000 feet AGL
Weather: no significant weather observed at this time

METAR text: KMCI 252253Z 21013KT 10SM FEW150 SCT250 30/20 A2991 RMK AO2 SLP117 CB DSNT N-NE T03000200
Conditions at: KMCI (KANSAS CITY/INTL, MO, US) observed 2253 UTC 25 June 2019
Temperature: 30.0°C (86°F)
Dewpoint: 20.0°C (68°F) [RH = 55%]
Pressure (altimeter): 29.91 inches Hg (1013.0 mb)
[Sea-level pressure: 1011.7 mb]
Winds: from the SSW (210 degrees) at 15 MPH (13 knots; 6.7 m/s)
Visibility: 10 or more miles (16+ km)
Ceiling: at least 12,000 feet AGL
Clouds: few clouds at 15000 feet AGL
scattered clouds at 25000 feet AGL
Weather: no significant weather observed at this time

METAR text: KMCI 252153Z 20009KT 10SM FEW150 SCT250 30/21 A2992 RMK AO2 SLP122 CB DSNT NW-NE T03000206
Conditions at: KMCI (KANSAS CITY/INTL, MO, US) observed 2153 UTC 25 June 2019
Temperature: 30.0°C (86°F)
Dewpoint: 20.6°C (69°F) [RH = 57%]
Pressure (altimeter): 29.92 inches Hg (1013.3 mb)
[Sea-level pressure: 1012.2 mb]
Winds: from the SSW (200 degrees) at 10 MPH (9 knots; 4.6 m/s)
Visibility: 10 or more miles (16+ km)
Ceiling: at least 12,000 feet AGL
Clouds: few clouds at 15000 feet AGL
scattered clouds at 25000 feet AGL
Weather: no significant weather observed at this time

METAR text: KMCI 252053Z 21011KT 10SM FEW100 SCT250 30/20 A2994 RMK AO2 SLP126 CB DSNT NW-N T03000200 58012
Conditions at: KMCI (KANSAS CITY/INTL, MO, US) observed 2053 UTC 25 June 2019
Temperature: 30.0°C (86°F)
Dewpoint: 20.0°C (68°F) [RH = 55%]
Pressure (altimeter): 29.94 inches Hg (1014.0 mb)
[Sea-level pressure: 1012.6 mb]
Winds: from the SSW (210 degrees) at 13 MPH (11 knots; 5.7 m/s)
Visibility: 10 or more miles (16+ km)
Ceiling: at least 12,000 feet AGL
Clouds: few clouds at 10000 feet AGL
scattered clouds at 25000 feet AGL
Weather: no significant weather observed at this time

METAR text: KMCI 251953Z 21011KT 10SM FEW130 SCT250 29/19 A2996 RMK AO2 SLP134 T02940194
Conditions at: KMCI (KANSAS CITY/INTL, MO, US) observed 1953 UTC 25 June 2019
Temperature: 29.4°C (85°F)
Dewpoint: 19.4°C (67°F) [RH = 55%]
Pressure (altimeter): 29.96 inches Hg (1014.6 mb)
[Sea-level pressure: 1013.4 mb]
Winds: from the SSW (210 degrees) at 13 MPH (11 knots; 5.7 m/s)
Visibility: 10 or more miles (16+ km)
Ceiling: at least 12,000 feet AGL
Clouds: few clouds at 13000 feet AGL
scattered clouds at 25000 feet AGL
Weather: no significant weather observed at this time

METAR text: KMCI 251853Z 22011KT 10SM FEW130 FEW250 29/19 A2996 RMK AO2 SLP137 T02890189
Conditions at: KMCI (KANSAS CITY/INTL, MO, US) observed 1853 UTC 25 June 2019
Temperature: 28.9°C (84°F)
Dewpoint: 18.9°C (66°F) [RH = 55%]
Pressure (altimeter): 29.96 inches Hg (1014.6 mb)
[Sea-level pressure: 1013.7 mb]
Winds: from the SW (220 degrees) at 13 MPH (11 knots; 5.7 m/s)
Visibility: 10 or more miles (16+ km)
Ceiling: at least 12,000 feet AGL
Clouds: few clouds at 13000 feet AGL
few clouds at 25000 feet AGL
Weather: no significant weather observed at this time

METAR text: KMCI 251753Z 22012G20KT 10SM FEW130 FEW250 28/19 A2997 RMK AO2 SLP139 T02830194 10283 20189 53001
Conditions at: KMCI (KANSAS CITY/INTL, MO, US) observed 1753 UTC 25 June 2019
Temperature: 28.3°C (83°F)
Dewpoint: 19.4°C (67°F) [RH = 59%]
Pressure (altimeter): 29.97 inches Hg (1015.0 mb)
[Sea-level pressure: 1013.9 mb]
Winds: from the SW (220 degrees) at 14 MPH (12 knots; 6.2 m/s)
gusting to 23 MPH (20 knots; 10.3 m/s)
Visibility: 10 or more miles (16+ km)
Ceiling: at least 12,000 feet AGL
Clouds: few clouds at 13000 feet AGL
few clouds at 25000 feet AGL
Weather: no significant weather observed at this time

METAR text: KMCI 251653Z 22010KT 10SM FEW130 28/21 A2997 RMK AO2 SLP138 T02780206
Conditions at: KMCI (KANSAS CITY/INTL, MO, US) observed 1653 UTC 25 June 2019
Temperature: 27.8°C (82°F)
Dewpoint: 20.6°C (69°F) [RH = 65%]
Pressure (altimeter): 29.97 inches Hg (1015.0 mb)
[Sea-level pressure: 1013.8 mb]
Winds: from the SW (220 degrees) at 12 MPH (10 knots; 5.1 m/s)
Visibility: 10 or more miles (16+ km)
Ceiling: at least 12,000 feet AGL
Clouds: few clouds at 13000 feet AGL
Weather: no significant weather observed at this time

METAR text: KMCI 251553Z 21010KT 10SM SCT065 SCT170 26/19 A2996 RMK AO2 SLP137 T02610194
Conditions at: KMCI (KANSAS CITY/INTL, MO, US) observed 1553 UTC 25 June 2019
Temperature: 26.1°C (79°F)
Dewpoint: 19.4°C (67°F) [RH = 67%]
Pressure (altimeter): 29.96 inches Hg (1014.6 mb)
[Sea-level pressure: 1013.7 mb]
Winds: from the SSW (210 degrees) at 12 MPH (10 knots; 5.1 m/s)
Visibility: 10 or more miles (16+ km)
Ceiling: at least 12,000 feet AGL
Clouds: scattered clouds at 6500 feet AGL
scattered clouds at 17000 feet AGL
Weather: no significant weather observed at this time

METAR text: KMCI 251453Z 22013KT 10SM SCT065 SCT170 24/18 A2997 RMK AO2 SLP139 T02440183 51014
Conditions at: KMCI (KANSAS CITY/INTL, MO, US) observed 1453 UTC 25 June 2019
Temperature: 24.4°C (76°F)
Dewpoint: 18.3°C (65°F) [RH = 69%]
Pressure (altimeter): 29.97 inches Hg (1015.0 mb)
[Sea-level pressure: 1013.9 mb]
Winds: from the SW (220 degrees) at 15 MPH (13 knots; 6.7 m/s)
Visibility: 10 or more miles (16+ km)
Ceiling: at least 12,000 feet AGL
Clouds: scattered clouds at 6500 feet AGL
scattered clouds at 17000 feet AGL
Weather: no significant weather observed at this time

METAR text: KMCI 251353Z 22007KT 10SM FEW065 SCT170 23/18 A2996 RMK AO2 SLP137 T02280178
Conditions at: KMCI (KANSAS CITY/INTL, MO, US) observed 1353 UTC 25 June 2019
Temperature: 22.8°C (73°F)
Dewpoint: 17.8°C (64°F) [RH = 73%]
Pressure (altimeter): 29.96 inches Hg (1014.6 mb)
[Sea-level pressure: 1013.7 mb]
Winds: from the SW (220 degrees) at 8 MPH (7 knots; 3.6 m/s)
Visibility: 10 or more miles (16+ km)
Ceiling: at least 12,000 feet AGL
Clouds: few clouds at 6500 feet AGL
scattered clouds at 17000 feet AGL
Weather: no significant weather observed at this time

METAR text: KMCI 251253Z 25006KT 10SM FEW065 SCT170 21/17 A2996 RMK AO2 SLP137 T02060167
Conditions at: KMCI (KANSAS CITY/INTL, MO, US) observed 1253 UTC 25 June 2019
Temperature: 20.6°C (69°F)
Dewpoint: 16.7°C (62°F) [RH = 78%]
Pressure (altimeter): 29.96 inches Hg (1014.6 mb)
[Sea-level pressure: 1013.7 mb]
Winds: from the WSW (250 degrees) at 7 MPH (6 knots; 3.1 m/s)
Visibility: 10 or more miles (16+ km)
Ceiling: at least 12,000 feet AGL
Clouds: few clouds at 6500 feet AGL
scattered clouds at 17000 feet AGL
Weather: no significant weather observed at this time

METAR text: KMCI 251153Z 21007KT 10SM SCT065 19/16 A2993 RMK AO2 SLP125 T01890156 10189 20178 53020
Conditions at: KMCI (KANSAS CITY/INTL, MO, US) observed 1153 UTC 25 June 2019
Temperature: 18.9°C (66°F)
Dewpoint: 15.6°C (60°F) [RH = 81%]
Pressure (altimeter): 29.93 inches Hg (1013.6 mb)
[Sea-level pressure: 1012.5 mb]
Winds: from the SSW (210 degrees) at 8 MPH (7 knots; 3.6 m/s)
Visibility: 10 or more miles (16+ km)
Ceiling: at least 12,000 feet AGL
Clouds: scattered clouds at 6500 feet AGL
Weather: no significant weather observed at this time

METAR text: KMCI 251053Z 19009KT 10SM FEW065 18/15 A2989 RMK AO2 SLP114 T01830150
Conditions at: KMCI (KANSAS CITY/INTL, MO, US) observed 1053 UTC 25 June 2019
Temperature: 18.3°C (65°F)
Dewpoint: 15.0°C (59°F) [RH = 81%]
Pressure (altimeter): 29.89 inches Hg (1012.3 mb)
[Sea-level pressure: 1011.4 mb]
Winds: from the S (190 degrees) at 10 MPH (9 knots; 4.6 m/s)
Visibility: 10 or more miles (16+ km)
Ceiling: at least 12,000 feet AGL
Clouds: few clouds at 6500 feet AGL
Weather: no significant weather observed at this time

METAR text: KMCI 250953Z 20008KT 10SM CLR 18/15 A2987 RMK AO2 SLP105 T01830150
Conditions at: KMCI (KANSAS CITY/INTL, MO, US) observed 0953 UTC 25 June 2019
Temperature: 18.3°C (65°F)
Dewpoint: 15.0°C (59°F) [RH = 81%]
Pressure (altimeter): 29.87 inches Hg (1011.6 mb)
[Sea-level pressure: 1010.5 mb]
Winds: from the SSW (200 degrees) at 9 MPH (8 knots; 4.1 m/s)
Visibility: 10 or more miles (16+ km)
Ceiling: at least 12,000 feet AGL
Clouds: sky clear below 12,000 feet AGL
Weather: no significant weather observed at this time

METAR text: KMCI 250853Z 20009KT 10SM CLR 18/15 A2986 RMK AO2 SLP104 T01830150 58002
Conditions at: KMCI (KANSAS CITY/INTL, MO, US) observed 0853 UTC 25 June 2019
Temperature: 18.3°C (65°F)
Dewpoint: 15.0°C (59°F) [RH = 81%]
Pressure (altimeter): 29.86 inches Hg (1011.3 mb)
[Sea-level pressure: 1010.4 mb]
Winds: from the SSW (200 degrees) at 10 MPH (9 knots; 4.6 m/s)
Visibility: 10 or more miles (16+ km)
Ceiling: at least 12,000 feet AGL
Clouds: sky clear below 12,000 feet AGL
Weather: no significant weather observed at this time

METAR text: KMCI 250753Z 19008KT 10SM CLR 18/15 A2987 RMK AO2 SLP105 T01780150
Conditions at: KMCI (KANSAS CITY/INTL, MO, US) observed 0753 UTC 25 June 2019
Temperature: 17.8°C (64°F)
Dewpoint: 15.0°C (59°F) [RH = 84%]
Pressure (altimeter): 29.87 inches Hg (1011.6 mb)
[Sea-level pressure: 1010.5 mb]
Winds: from the S (190 degrees) at 9 MPH (8 knots; 4.1 m/s)
Visibility: 10 or more miles (16+ km)
Ceiling: at least 12,000 feet AGL
Clouds: sky clear below 12,000 feet AGL
Weather: no significant weather observed at this time

METAR text: KMCI 250653Z 19007KT 10SM CLR 18/15 A2987 RMK AO2 SLP107 T01830150
Conditions at: KMCI (KANSAS CITY/INTL, MO, US) observed 0653 UTC 25 June 2019
Temperature: 18.3°C (65°F)
Dewpoint: 15.0°C (59°F) [RH = 81%]
Pressure (altimeter): 29.87 inches Hg (1011.6 mb)
[Sea-level pressure: 1010.7 mb]
Winds: from the S (190 degrees) at 8 MPH (7 knots; 3.6 m/s)
Visibility: 10 or more miles (16+ km)
Ceiling: at least 12,000 feet AGL
Clouds: sky clear below 12,000 feet AGL
Weather: no significant weather observed at this time

METAR text: KMCI 250553Z 20009KT 10SM CLR 19/15 A2987 RMK AO2 SLP106 T01890150 10250 20167 402610167 51004
Conditions at: KMCI (KANSAS CITY/INTL, MO, US) observed 0553 UTC 25 June 2019
Temperature: 18.9°C (66°F)
Dewpoint: 15.0°C (59°F) [RH = 78%]
Pressure (altimeter): 29.87 inches Hg (1011.6 mb)
[Sea-level pressure: 1010.6 mb]
Winds: from the SSW (200 degrees) at 10 MPH (9 knots; 4.6 m/s)
Visibility: 10 or more miles (16+ km)
Ceiling: at least 12,000 feet AGL
Clouds: sky clear below 12,000 feet AGL
Weather: no significant weather observed at this time

METAR text: KMCI 250453Z 20008KT 10SM CLR 17/15 A2987 RMK AO2 SLP107 T01720150
Conditions at: KMCI (KANSAS CITY/INTL, MO, US) observed 0453 UTC 25 June 2019
Temperature: 17.2°C (63°F)
Dewpoint: 15.0°C (59°F) [RH = 87%]
Pressure (altimeter): 29.87 inches Hg (1011.6 mb)
[Sea-level pressure: 1010.7 mb]
Winds: from the SSW (200 degrees) at 9 MPH (8 knots; 4.1 m/s)
Visibility: 10 or more miles (16+ km)
Ceiling: at least 12,000 feet AGL
Clouds: sky clear below 12,000 feet AGL
Weather: no significant weather observed at this time

METAR text: KMCI 250353Z 17008KT 10SM FEW140 17/15 A2987 RMK AO2 SLP106 T01720150
Conditions at: KMCI (KANSAS CITY/INTL, MO, US) observed 0353 UTC 25 June 2019
Temperature: 17.2°C (63°F)
Dewpoint: 15.0°C (59°F) [RH = 87%]
Pressure (altimeter): 29.87 inches Hg (1011.6 mb)
[Sea-level pressure: 1010.6 mb]
Winds: from the S (170 degrees) at 9 MPH (8 knots; 4.1 m/s)
Visibility: 10 or more miles (16+ km)
Ceiling: at least 12,000 feet AGL
Clouds: few clouds at 14000 feet AGL
Weather: no significant weather observed at this time

METAR text: KMCI 250253Z 20005KT 10SM FEW140 19/16 A2986 RMK AO2 SLP104 T01890156 51008
Conditions at: KMCI (KANSAS CITY/INTL, MO, US) observed 0253 UTC 25 June 2019
Temperature: 18.9°C (66°F)
Dewpoint: 15.6°C (60°F) [RH = 81%]
Pressure (altimeter): 29.86 inches Hg (1011.3 mb)
[Sea-level pressure: 1010.4 mb]
Winds: from the SSW (200 degrees) at 6 MPH (5 knots; 2.6 m/s)
Visibility: 10 or more miles (16+ km)
Ceiling: at least 12,000 feet AGL
Clouds: few clouds at 14000 feet AGL
Weather: no significant weather observed at this time

METAR text: KMCI 250153Z 20005KT 10SM FEW140 21/16 A2985 RMK AO2 SLP100 T02060156
Conditions at: KMCI (KANSAS CITY/INTL, MO, US) observed 0153 UTC 25 June 2019
Temperature: 20.6°C (69°F)
Dewpoint: 15.6°C (60°F) [RH = 73%]
Pressure (altimeter): 29.85 inches Hg (1010.9 mb)
[Sea-level pressure: 1010.0 mb]
Winds: from the SSW (200 degrees) at 6 MPH (5 knots; 2.6 m/s)
Visibility: 10 or more miles (16+ km)
Ceiling: at least 12,000 feet AGL
Clouds: few clouds at 14000 feet AGL
Weather: no significant weather observed at this time

METAR text: KMCI 250053Z 23005KT 10SM FEW140 FEW220 24/16 A2984 RMK AO2 SLP097 T02390156
Conditions at: KMCI (KANSAS CITY/INTL, MO, US) observed 0053 UTC 25 June 2019
Temperature: 23.9°C (75°F)
Dewpoint: 15.6°C (60°F) [RH = 60%]
Pressure (altimeter): 29.84 inches Hg (1010.6 mb)
[Sea-level pressure: 1009.7 mb]
Winds: from the SW (230 degrees) at 6 MPH (5 knots; 2.6 m/s)
Visibility: 10 or more miles (16+ km)
Ceiling: at least 12,000 feet AGL
Clouds: few clouds at 14000 feet AGL
few clouds at 22000 feet AGL
Weather: no significant weather observed at this time

METAR text: KMCI 242353Z 25008KT 10SM SCT140 25/14 A2983 RMK AO2 SLP094 T02500144 10261 20239 56003
Conditions at: KMCI (KANSAS CITY/INTL, MO, US) observed 2353 UTC 24 June 2019
Temperature: 25.0°C (77°F)
Dewpoint: 14.4°C (58°F) [RH = 52%]
Pressure (altimeter): 29.83 inches Hg (1010.2 mb)
[Sea-level pressure: 1009.4 mb]
Winds: from the WSW (250 degrees) at 9 MPH (8 knots; 4.1 m/s)
Visibility: 10 or more miles (16+ km)
Ceiling: at least 12,000 feet AGL
Clouds: scattered clouds at 14000 feet AGL
Weather: no significant weather observed at this time

METAR text: KMCI 242253Z 24008KT 10SM SCT140 26/15 A2983 RMK AO2 SLP094 T02560150
Conditions at: KMCI (KANSAS CITY/INTL, MO, US) observed 2253 UTC 24 June 2019
Temperature: 25.6°C (78°F)
Dewpoint: 15.0°C (59°F) [RH = 52%]
Pressure (altimeter): 29.83 inches Hg (1010.2 mb)
[Sea-level pressure: 1009.4 mb]
Winds: from the WSW (240 degrees) at 9 MPH (8 knots; 4.1 m/s)
Visibility: 10 or more miles (16+ km)
Ceiling: at least 12,000 feet AGL
Clouds: scattered clouds at 14000 feet AGL
Weather: no significant weather observed at this time

METAR text: KMCI 242153Z 26008G18KT 10SM FEW060 SCT140 26/14 A2984 RMK AO2 SLP095 T02560144
Conditions at: KMCI (KANSAS CITY/INTL, MO, US) observed 2153 UTC 24 June 2019
Temperature: 25.6°C (78°F)
Dewpoint: 14.4°C (58°F) [RH = 50%]
Pressure (altimeter): 29.84 inches Hg (1010.6 mb)
[Sea-level pressure: 1009.5 mb]
Winds: from the W (260 degrees) at 9 MPH (8 knots; 4.1 m/s)
gusting to 21 MPH (18 knots; 9.3 m/s)
Visibility: 10 or more miles (16+ km)
Ceiling: at least 12,000 feet AGL
Clouds: few clouds at 6000 feet AGL
scattered clouds at 14000 feet AGL
Weather: no significant weather observed at this time

METAR text: KMCI 242053Z 24012G18KT 10SM FEW060 SCT140 26/15 A2984 RMK AO2 SLP096 T02560150 58003
Conditions at: KMCI (KANSAS CITY/INTL, MO, US) observed 2053 UTC 24 June 2019
Temperature: 25.6°C (78°F)
Dewpoint: 15.0°C (59°F) [RH = 52%]
Pressure (altimeter): 29.84 inches Hg (1010.6 mb)
[Sea-level pressure: 1009.6 mb]
Winds: from the WSW (240 degrees) at 14 MPH (12 knots; 6.2 m/s)
gusting to 21 MPH (18 knots; 9.3 m/s)
Visibility: 10 or more miles (16+ km)
Ceiling: at least 12,000 feet AGL
Clouds: few clouds at 6000 feet AGL
scattered clouds at 14000 feet AGL
Weather: no significant weather observed at this time

METAR text: KMCI 241953Z 24010KT 10SM FEW030 25/14 A2985 RMK AO2 SLP098 T02500144
Conditions at: KMCI (KANSAS CITY/INTL, MO, US) observed 1953 UTC 24 June 2019
Temperature: 25.0°C (77°F)
Dewpoint: 14.4°C (58°F) [RH = 52%]
Pressure (altimeter): 29.85 inches Hg (1010.9 mb)
[Sea-level pressure: 1009.8 mb]
Winds: from the WSW (240 degrees) at 12 MPH (10 knots; 5.1 m/s)
Visibility: 10 or more miles (16+ km)
Ceiling: at least 12,000 feet AGL
Clouds: few clouds at 3000 feet AGL
Weather: no significant weather observed at this time

METAR text: KMCI 241853Z 25012KT 10SM FEW030 24/14 A2985 RMK AO2 SLP099 T02440144
Conditions at: KMCI (KANSAS CITY/INTL, MO, US) observed 1853 UTC 24 June 2019
Temperature: 24.4°C (76°F)
Dewpoint: 14.4°C (58°F) [RH = 54%]
Pressure (altimeter): 29.85 inches Hg (1010.9 mb)
[Sea-level pressure: 1009.9 mb]
Winds: from the WSW (250 degrees) at 14 MPH (12 knots; 6.2 m/s)
Visibility: 10 or more miles (16+ km)
Ceiling: at least 12,000 feet AGL
Clouds: few clouds at 3000 feet AGL
Weather: no significant weather observed at this time

METAR text: KMCI 241753Z 29010KT 10SM FEW025 24/14 A2985 RMK AO2 SLP100 T02390144 10239 20167 51007
Conditions at: KMCI (KANSAS CITY/INTL, MO, US) observed 1753 UTC 24 June 2019
Temperature: 23.9°C (75°F)
Dewpoint: 14.4°C (58°F) [RH = 55%]
Pressure (altimeter): 29.85 inches Hg (1010.9 mb)
[Sea-level pressure: 1010.0 mb]
Winds: from the WNW (290 degrees) at 12 MPH (10 knots; 5.1 m/s)
Visibility: 10 or more miles (16+ km)
Ceiling: at least 12,000 feet AGL
Clouds: few clouds at 2500 feet AGL
Weather: no significant weather observed at this time

METAR text: KMCI 241653Z 28008KT 260V330 10SM FEW025 23/15 A2985 RMK AO2 SLP099 T02280150
Conditions at: KMCI (KANSAS CITY/INTL, MO, US) observed 1653 UTC 24 June 2019
Temperature: 22.8°C (73°F)
Dewpoint: 15.0°C (59°F) [RH = 61%]
Pressure (altimeter): 29.85 inches Hg (1010.9 mb)
[Sea-level pressure: 1009.9 mb]
Winds: from the W (280 degrees) at 9 MPH (8 knots; 4.1 m/s)
Visibility: 10 or more miles (16+ km)
Ceiling: at least 12,000 feet AGL
Clouds: few clouds at 2500 feet AGL
Weather: no significant weather observed at this time

METAR text: KMCI 241553Z 30007KT 10SM SCT020 22/14 A2984 RMK AO2 SLP098 T02170144
Conditions at: KMCI (KANSAS CITY/INTL, MO, US) observed 1553 UTC 24 June 2019
Temperature: 21.7°C (71°F)
Dewpoint: 14.4°C (58°F) [RH = 63%]
Pressure (altimeter): 29.84 inches Hg (1010.6 mb)
[Sea-level pressure: 1009.8 mb]
Winds: from the WNW (300 degrees) at 8 MPH (7 knots; 3.6 m/s)
Visibility: 10 or more miles (16+ km)
Ceiling: at least 12,000 feet AGL
Clouds: scattered clouds at 2000 feet AGL
Weather: no significant weather observed at this time

Forecast for: KMCI (KANSAS CITY/INTL, MO, US)
Text: KMCI 252320Z 2600/2624 19008KT P6SM SCT150
Forecast period: 0000 UTC 26 June 2019 to 0000 UTC 27 June 2019
Forecast type: FROM: standard forecast or significant change
Winds: from the S (190 degrees) at 9 MPH (8 knots; 4.1 m/s)
Visibility: 6 or more miles 10+ km)
Ceiling: at least 12,000 feet AGL
Clouds: scattered clouds at 15000 feet AGL
Weather: no significant weather forecast for this period